sensor_id;sensor_type;location;lat;lon;timestamp;temperature;humidity
9006;DHT22;62284;50.702;7.140;2022-11-15T00:00:56;11.70;99.90
9006;DHT22;62284;50.702;7.140;2022-11-15T00:03:25;11.70;99.90
9006;DHT22;62284;50.702;7.140;2022-11-15T00:05:53;11.80;99.90
9006;DHT22;62284;50.702;7.140;2022-11-15T00:08:20;11.80;99.90
9006;DHT22;62284;50.702;7.140;2022-11-15T00:10:54;11.80;99.90
9006;DHT22;62284;50.702;7.140;2022-11-15T00:13:21;11.80;99.90
9006;DHT22;62284;50.702;7.140;2022-11-15T00:15:48;11.80;99.90
9006;DHT22;62284;50.702;7.140;2022-11-15T00:18:16;11.80;99.90
9006;DHT22;62284;50.702;7.140;2022-11-15T00:20:43;11.90;99.90
9006;DHT22;62284;50.702;7.140;2022-11-15T00:23:11;11.90;99.90
9006;DHT22;62284;50.702;7.140;2022-11-15T00:25:38;11.90;99.90
9006;DHT22;62284;50.702;7.140;2022-11-15T00:28:05;11.90;99.90
9006;DHT22;62284;50.702;7.140;2022-11-15T00:30:31;12.00;99.90
9006;DHT22;62284;50.702;7.140;2022-11-15T00:33:01;12.00;99.90
9006;DHT22;62284;50.702;7.140;2022-11-15T00:35:31;12.00;99.90
9006;DHT22;62284;50.702;7.140;2022-11-15T00:37:59;12.00;99.90
9006;DHT22;62284;50.702;7.140;2022-11-15T00:40:26;11.90;99.90
9006;DHT22;62284;50.702;7.140;2022-11-15T00:42:53;11.90;99.90
9006;DHT22;62284;50.702;7.140;2022-11-15T00:45:20;11.90;99.90
9006;DHT22;62284;50.702;7.140;2022-11-15T00:47:47;12.00;99.90
9006;DHT22;62284;50.702;7.140;2022-11-15T00:50:14;11.90;99.90
9006;DHT22;62284;50.702;7.140;2022-11-15T00:52:42;11.90;99.90
9006;DHT22;62284;50.702;7.140;2022-11-15T00:55:13;11.90;99.90
9006;DHT22;62284;50.702;7.140;2022-11-15T00:57:40;12.00;99.90
9006;DHT22;62284;50.702;7.140;2022-11-15T01:00:08;12.00;99.90
9006;DHT22;62284;50.702;7.140;2022-11-15T01:02:35;12.00;99.90
9006;DHT22;62284;50.702;7.140;2022-11-15T01:05:03;12.10;99.90
9006;DHT22;62284;50.702;7.140;2022-11-15T01:07:30;12.10;99.90
9006;DHT22;62284;50.702;7.140;2022-11-15T01:09:58;12.10;99.90
9006;DHT22;62284;50.702;7.140;2022-11-15T01:12:25;12.10;99.90
9006;DHT22;62284;50.702;7.140;2022-11-15T01:14:51;12.20;99.90
9006;DHT22;62284;50.702;7.140;2022-11-15T01:17:18;12.20;99.90
9006;DHT22;62284;50.702;7.140;2022-11-15T01:19:45;12.20;99.90
9006;DHT22;62284;50.702;7.140;2022-11-15T01:22:12;12.20;99.90
9006;DHT22;62284;50.702;7.140;2022-11-15T01:24:39;12.20;99.90
9006;DHT22;62284;50.702;7.140;2022-11-15T01:27:07;12.20;99.90
9006;DHT22;62284;50.702;7.140;2022-11-15T01:29:34;12.20;99.90
9006;DHT22;62284;50.702;7.140;2022-11-15T01:32:01;12.20;99.90
9006;DHT22;62284;50.702;7.140;2022-11-15T01:34:28;12.20;99.90
9006;DHT22;62284;50.702;7.140;2022-11-15T01:36:55;12.30;99.90
9006;DHT22;62284;50.702;7.140;2022-11-15T01:39:21;12.30;99.90
9006;DHT22;62284;50.702;7.140;2022-11-15T01:41:48;12.30;99.90
9006;DHT22;62284;50.702;7.140;2022-11-15T01:44:43;12.30;99.90
9006;DHT22;62284;50.702;7.140;2022-11-15T01:47:13;12.30;99.90
9006;DHT22;62284;50.702;7.140;2022-11-15T01:49:49;12.30;99.90
9006;DHT22;62284;50.702;7.140;2022-11-15T01:52:19;12.30;99.90
9006;DHT22;62284;50.702;7.140;2022-11-15T01:54:46;12.30;99.90
9006;DHT22;62284;50.702;7.140;2022-11-15T01:57:13;12.30;99.90
9006;DHT22;62284;50.702;7.140;2022-11-15T01:59:43;12.30;99.90
9006;DHT22;62284;50.702;7.140;2022-11-15T02:02:11;12.40;99.90
9006;DHT22;62284;50.702;7.140;2022-11-15T02:04:41;12.40;99.90
9006;DHT22;62284;50.702;7.140;2022-11-15T02:07:11;12.40;99.90
9006;DHT22;62284;50.702;7.140;2022-11-15T02:09:39;12.40;99.90
9006;DHT22;62284;50.702;7.140;2022-11-15T02:12:07;12.30;99.90
9006;DHT22;62284;50.702;7.140;2022-11-15T02:14:36;12.40;99.90
9006;DHT22;62284;50.702;7.140;2022-11-15T02:17:16;12.40;99.90
9006;DHT22;62284;50.702;7.140;2022-11-15T02:23:11;12.40;99.90
9006;DHT22;62284;50.702;7.140;2022-11-15T02:25:52;12.40;99.90
9006;DHT22;62284;50.702;7.140;2022-11-15T02:28:37;12.40;99.90
9006;DHT22;62284;50.702;7.140;2022-11-15T02:31:11;12.50;99.90
9006;DHT22;62284;50.702;7.140;2022-11-15T02:33:44;12.50;99.90
9006;DHT22;62284;50.702;7.140;2022-11-15T02:36:25;12.50;99.90
9006;DHT22;62284;50.702;7.140;2022-11-15T02:38:58;12.50;99.90
9006;DHT22;62284;50.702;7.140;2022-11-15T02:41:30;12.50;99.90
9006;DHT22;62284;50.702;7.140;2022-11-15T02:44:02;12.50;99.90
9006;DHT22;62284;50.702;7.140;2022-11-15T02:46:36;12.50;99.90
9006;DHT22;62284;50.702;7.140;2022-11-15T02:49:21;12.50;99.90
9006;DHT22;62284;50.702;7.140;2022-11-15T02:51:49;12.50;99.90
9006;DHT22;62284;50.702;7.140;2022-11-15T02:54:21;12.60;99.90
9006;DHT22;62284;50.702;7.140;2022-11-15T02:56:49;12.60;99.90
9006;DHT22;62284;50.702;7.140;2022-11-15T02:59:30;12.60;99.90
9006;DHT22;62284;50.702;7.140;2022-11-15T03:02:16;12.60;99.90
9006;DHT22;62284;50.702;7.140;2022-11-15T03:04:52;12.60;99.90
9006;DHT22;62284;50.702;7.140;2022-11-15T03:07:25;12.60;99.90
9006;DHT22;62284;50.702;7.140;2022-11-15T03:09:58;12.60;99.90
9006;DHT22;62284;50.702;7.140;2022-11-15T03:12:34;12.60;99.90
9006;DHT22;62284;50.702;7.140;2022-11-15T03:15:06;12.60;99.90
9006;DHT22;62284;50.702;7.140;2022-11-15T03:17:38;12.50;99.90
9006;DHT22;62284;50.702;7.140;2022-11-15T03:20:09;12.60;99.90
9006;DHT22;62284;50.702;7.140;2022-11-15T03:22:40;12.60;99.90
9006;DHT22;62284;50.702;7.140;2022-11-15T03:25:11;12.70;99.90
9006;DHT22;62284;50.702;7.140;2022-11-15T03:27:45;12.70;99.90
9006;DHT22;62284;50.702;7.140;2022-11-15T03:30:13;12.70;99.90
9006;DHT22;62284;50.702;7.140;2022-11-15T03:32:45;12.70;99.90
9006;DHT22;62284;50.702;7.140;2022-11-15T03:35:14;12.80;99.90
9006;DHT22;62284;50.702;7.140;2022-11-15T03:37:46;12.80;99.90
9006;DHT22;62284;50.702;7.140;2022-11-15T03:40:16;12.70;99.90
9006;DHT22;62284;50.702;7.140;2022-11-15T03:42:48;12.70;99.90
9006;DHT22;62284;50.702;7.140;2022-11-15T03:45:24;12.80;99.90
9006;DHT22;62284;50.702;7.140;2022-11-15T03:47:59;12.80;99.90
9006;DHT22;62284;50.702;7.140;2022-11-15T03:50:29;12.80;99.90
9006;DHT22;62284;50.702;7.140;2022-11-15T03:52:56;12.80;99.90
9006;DHT22;62284;50.702;7.140;2022-11-15T03:55:24;12.80;99.90
9006;DHT22;62284;50.702;7.140;2022-11-15T03:57:54;12.80;99.90
9006;DHT22;62284;50.702;7.140;2022-11-15T04:00:22;12.80;99.90
9006;DHT22;62284;50.702;7.140;2022-11-15T04:02:49;12.80;99.90
9006;DHT22;62284;50.702;7.140;2022-11-15T04:05:17;12.70;99.90
9006;DHT22;62284;50.702;7.140;2022-11-15T04:07:44;12.80;99.90
9006;DHT22;62284;50.702;7.140;2022-11-15T04:10:11;12.70;99.90
9006;DHT22;62284;50.702;7.140;2022-11-15T04:12:41;12.60;99.90
9006;DHT22;62284;50.702;7.140;2022-11-15T04:15:10;12.50;99.90
9006;DHT22;62284;50.702;7.140;2022-11-15T04:17:39;12.40;99.90
9006;DHT22;62284;50.702;7.140;2022-11-15T04:20:09;12.40;99.90
9006;DHT22;62284;50.702;7.140;2022-11-15T04:22:56;12.30;99.90
9006;DHT22;62284;50.702;7.140;2022-11-15T04:25:41;12.30;99.90
9006;DHT22;62284;50.702;7.140;2022-11-15T04:28:09;12.20;99.90
9006;DHT22;62284;50.702;7.140;2022-11-15T04:30:36;12.20;99.90
9006;DHT22;62284;50.702;7.140;2022-11-15T04:33:03;12.20;99.90
9006;DHT22;62284;50.702;7.140;2022-11-15T04:35:30;12.10;99.90
9006;DHT22;62284;50.702;7.140;2022-11-15T04:37:58;12.20;99.90
9006;DHT22;62284;50.702;7.140;2022-11-15T04:40:25;12.20;99.90
9006;DHT22;62284;50.702;7.140;2022-11-15T04:42:52;12.20;99.90
9006;DHT22;62284;50.702;7.140;2022-11-15T04:45:19;12.30;99.90
9006;DHT22;62284;50.702;7.140;2022-11-15T04:47:46;12.40;99.90
9006;DHT22;62284;50.702;7.140;2022-11-15T04:50:14;12.50;99.90
9006;DHT22;62284;50.702;7.140;2022-11-15T04:52:41;12.50;99.90
9006;DHT22;62284;50.702;7.140;2022-11-15T04:55:10;12.50;99.90
9006;DHT22;62284;50.702;7.140;2022-11-15T04:57:37;12.60;99.90
9006;DHT22;62284;50.702;7.140;2022-11-15T05:00:06;12.60;99.90
9006;DHT22;62284;50.702;7.140;2022-11-15T05:02:33;12.60;99.90
9006;DHT22;62284;50.702;7.140;2022-11-15T05:05:17;12.60;99.90
9006;DHT22;62284;50.702;7.140;2022-11-15T05:07:44;12.60;99.90
9006;DHT22;62284;50.702;7.140;2022-11-15T05:10:13;12.60;99.90
9006;DHT22;62284;50.702;7.140;2022-11-15T05:12:40;12.70;99.90
9006;DHT22;62284;50.702;7.140;2022-11-15T05:15:07;12.70;99.90
9006;DHT22;62284;50.702;7.140;2022-11-15T05:17:34;12.70;99.90
9006;DHT22;62284;50.702;7.140;2022-11-15T05:20:01;12.60;99.90
9006;DHT22;62284;50.702;7.140;2022-11-15T05:22:28;12.50;99.90
9006;DHT22;62284;50.702;7.140;2022-11-15T05:24:55;12.40;99.90
9006;DHT22;62284;50.702;7.140;2022-11-15T05:27:23;12.40;99.90
9006;DHT22;62284;50.702;7.140;2022-11-15T05:29:50;12.30;99.90
9006;DHT22;62284;50.702;7.140;2022-11-15T05:32:16;12.30;99.90
9006;DHT22;62284;50.702;7.140;2022-11-15T05:34:44;12.30;99.90
9006;DHT22;62284;50.702;7.140;2022-11-15T05:37:12;12.30;99.90
9006;DHT22;62284;50.702;7.140;2022-11-15T05:39:39;12.30;99.90
9006;DHT22;62284;50.702;7.140;2022-11-15T05:42:08;12.20;99.90
9006;DHT22;62284;50.702;7.140;2022-11-15T05:44:39;12.20;99.90
9006;DHT22;62284;50.702;7.140;2022-11-15T05:47:09;12.20;99.90
9006;DHT22;62284;50.702;7.140;2022-11-15T05:49:38;12.20;99.90
9006;DHT22;62284;50.702;7.140;2022-11-15T05:52:08;12.10;99.90
9006;DHT22;62284;50.702;7.140;2022-11-15T05:54:37;12.10;99.90
9006;DHT22;62284;50.702;7.140;2022-11-15T05:57:04;12.10;99.90
9006;DHT22;62284;50.702;7.140;2022-11-15T05:59:32;12.10;99.90
9006;DHT22;62284;50.702;7.140;2022-11-15T06:02:00;12.00;99.90
9006;DHT22;62284;50.702;7.140;2022-11-15T06:04:27;12.10;99.90
9006;DHT22;62284;50.702;7.140;2022-11-15T06:06:54;12.00;99.90
9006;DHT22;62284;50.702;7.140;2022-11-15T06:09:21;12.00;99.90
9006;DHT22;62284;50.702;7.140;2022-11-15T06:11:48;12.00;99.90
9006;DHT22;62284;50.702;7.140;2022-11-15T06:14:15;12.10;99.90
9006;DHT22;62284;50.702;7.140;2022-11-15T06:16:41;12.10;99.90
9006;DHT22;62284;50.702;7.140;2022-11-15T06:19:09;12.20;99.90
9006;DHT22;62284;50.702;7.140;2022-11-15T06:21:36;12.10;99.90
9006;DHT22;62284;50.702;7.140;2022-11-15T06:24:05;12.10;99.90
9006;DHT22;62284;50.702;7.140;2022-11-15T06:26:32;12.00;99.90
9006;DHT22;62284;50.702;7.140;2022-11-15T06:28:59;12.00;99.90
9006;DHT22;62284;50.702;7.140;2022-11-15T06:31:25;12.00;99.90
9006;DHT22;62284;50.702;7.140;2022-11-15T06:33:52;11.90;99.90
9006;DHT22;62284;50.702;7.140;2022-11-15T06:36:20;12.00;99.90
9006;DHT22;62284;50.702;7.140;2022-11-15T06:38:47;12.00;99.90
9006;DHT22;62284;50.702;7.140;2022-11-15T06:41:14;11.90;99.90
9006;DHT22;62284;50.702;7.140;2022-11-15T06:43:42;11.90;99.90
9006;DHT22;62284;50.702;7.140;2022-11-15T06:46:09;11.80;99.90
9006;DHT22;62284;50.702;7.140;2022-11-15T06:48:36;11.80;99.90
9006;DHT22;62284;50.702;7.140;2022-11-15T06:51:04;11.80;99.90
9006;DHT22;62284;50.702;7.140;2022-11-15T06:53:33;11.80;99.90
9006;DHT22;62284;50.702;7.140;2022-11-15T06:56:00;11.80;99.90
9006;DHT22;62284;50.702;7.140;2022-11-15T06:58:27;11.70;99.90
9006;DHT22;62284;50.702;7.140;2022-11-15T07:00:58;11.70;99.90
9006;DHT22;62284;50.702;7.140;2022-11-15T07:03:25;11.70;99.90
9006;DHT22;62284;50.702;7.140;2022-11-15T07:05:53;11.60;99.90
9006;DHT22;62284;50.702;7.140;2022-11-15T07:08:20;11.60;99.90
9006;DHT22;62284;50.702;7.140;2022-11-15T07:10:49;11.60;99.90
9006;DHT22;62284;50.702;7.140;2022-11-15T07:13:16;11.60;99.90
9006;DHT22;62284;50.702;7.140;2022-11-15T07:15:43;11.60;99.90
9006;DHT22;62284;50.702;7.140;2022-11-15T07:18:10;11.60;99.90
9006;DHT22;62284;50.702;7.140;2022-11-15T07:20:36;11.60;99.90
9006;DHT22;62284;50.702;7.140;2022-11-15T07:23:05;11.60;99.90
9006;DHT22;62284;50.702;7.140;2022-11-15T07:28:18;11.60;99.90
9006;DHT22;62284;50.702;7.140;2022-11-15T07:30:45;11.70;99.90
9006;DHT22;62284;50.702;7.140;2022-11-15T07:33:12;11.70;99.90
9006;DHT22;62284;50.702;7.140;2022-11-15T07:35:39;11.80;99.90
9006;DHT22;62284;50.702;7.140;2022-11-15T07:38:05;11.80;99.90
9006;DHT22;62284;50.702;7.140;2022-11-15T07:40:32;11.90;99.90
9006;DHT22;62284;50.702;7.140;2022-11-15T07:43:00;11.90;99.90
9006;DHT22;62284;50.702;7.140;2022-11-15T07:45:28;11.90;99.90
9006;DHT22;62284;50.702;7.140;2022-11-15T07:47:56;11.90;99.90
9006;DHT22;62284;50.702;7.140;2022-11-15T07:50:23;11.90;99.90
9006;DHT22;62284;50.702;7.140;2022-11-15T07:52:53;12.10;99.90
9006;DHT22;62284;50.702;7.140;2022-11-15T07:55:22;12.10;99.90
9006;DHT22;62284;50.702;7.140;2022-11-15T07:57:49;12.10;99.90
9006;DHT22;62284;50.702;7.140;2022-11-15T08:00:17;12.20;99.90
9006;DHT22;62284;50.702;7.140;2022-11-15T08:02:45;12.20;99.90
9006;DHT22;62284;50.702;7.140;2022-11-15T08:05:12;12.30;99.90
9006;DHT22;62284;50.702;7.140;2022-11-15T08:07:39;12.30;99.90
9006;DHT22;62284;50.702;7.140;2022-11-15T08:10:07;12.40;99.90
9006;DHT22;62284;50.702;7.140;2022-11-15T08:12:34;12.40;99.90
9006;DHT22;62284;50.702;7.140;2022-11-15T08:15:01;12.40;99.90
9006;DHT22;62284;50.702;7.140;2022-11-15T08:17:28;12.50;99.90
9006;DHT22;62284;50.702;7.140;2022-11-15T08:19:59;12.50;99.90
9006;DHT22;62284;50.702;7.140;2022-11-15T08:22:26;12.50;99.90
9006;DHT22;62284;50.702;7.140;2022-11-15T08:24:53;12.50;99.90
9006;DHT22;62284;50.702;7.140;2022-11-15T08:27:20;12.60;99.90
9006;DHT22;62284;50.702;7.140;2022-11-15T08:29:48;12.60;99.90
9006;DHT22;62284;50.702;7.140;2022-11-15T08:32:15;12.80;99.90
9006;DHT22;62284;50.702;7.140;2022-11-15T08:34:43;12.80;99.90
9006;DHT22;62284;50.702;7.140;2022-11-15T08:37:11;12.90;99.90
9006;DHT22;62284;50.702;7.140;2022-11-15T08:39:38;12.90;99.90
9006;DHT22;62284;50.702;7.140;2022-11-15T08:42:05;13.10;99.90
9006;DHT22;62284;50.702;7.140;2022-11-15T08:44:32;13.10;99.90
9006;DHT22;62284;50.702;7.140;2022-11-15T08:46:58;13.20;99.90
9006;DHT22;62284;50.702;7.140;2022-11-15T08:49:25;13.20;99.90
9006;DHT22;62284;50.702;7.140;2022-11-15T08:51:52;13.10;99.90
9006;DHT22;62284;50.702;7.140;2022-11-15T08:54:20;13.20;99.90
9006;DHT22;62284;50.702;7.140;2022-11-15T08:56:47;13.20;99.90
9006;DHT22;62284;50.702;7.140;2022-11-15T08:59:14;13.30;99.90
9006;DHT22;62284;50.702;7.140;2022-11-15T09:01:41;13.40;99.90
9006;DHT22;62284;50.702;7.140;2022-11-15T09:04:07;13.50;99.90
9006;DHT22;62284;50.702;7.140;2022-11-15T09:06:34;13.60;99.90
9006;DHT22;62284;50.702;7.140;2022-11-15T09:09:01;13.70;99.90
9006;DHT22;62284;50.702;7.140;2022-11-15T09:11:29;13.80;99.90
9006;DHT22;62284;50.702;7.140;2022-11-15T09:13:56;13.90;99.90
9006;DHT22;62284;50.702;7.140;2022-11-15T09:16:23;14.00;99.90
9006;DHT22;62284;50.702;7.140;2022-11-15T09:18:50;14.10;99.90
9006;DHT22;62284;50.702;7.140;2022-11-15T09:21:16;14.20;99.90
9006;DHT22;62284;50.702;7.140;2022-11-15T09:23:43;14.30;99.90
9006;DHT22;62284;50.702;7.140;2022-11-15T09:26:10;14.40;99.90
9006;DHT22;62284;50.702;7.140;2022-11-15T09:28:38;14.50;99.90
9006;DHT22;62284;50.702;7.140;2022-11-15T09:31:07;14.80;99.90
9006;DHT22;62284;50.702;7.140;2022-11-15T09:33:34;15.30;99.90
9006;DHT22;62284;50.702;7.140;2022-11-15T09:36:02;16.10;99.00
9006;DHT22;62284;50.702;7.140;2022-11-15T09:38:29;16.30;95.80
9006;DHT22;62284;50.702;7.140;2022-11-15T09:41:08;16.90;96.00
9006;DHT22;62284;50.702;7.140;2022-11-15T09:43:46;17.40;93.10
9006;DHT22;62284;50.702;7.140;2022-11-15T09:46:21;17.70;94.40
9006;DHT22;62284;50.702;7.140;2022-11-15T09:48:53;18.00;95.50
9006;DHT22;62284;50.702;7.140;2022-11-15T09:51:27;18.40;92.00
9006;DHT22;62284;50.702;7.140;2022-11-15T09:54:04;18.90;77.10
9006;DHT22;62284;50.702;7.140;2022-11-15T09:56:35;19.80;95.00
9006;DHT22;62284;50.702;7.140;2022-11-15T10:02:32;20.30;90.30
9006;DHT22;62284;50.702;7.140;2022-11-15T10:05:00;19.50;90.20
9006;DHT22;62284;50.702;7.140;2022-11-15T10:07:32;19.40;90.50
9006;DHT22;62284;50.702;7.140;2022-11-15T10:10:08;20.30;86.00
9006;DHT22;62284;50.702;7.140;2022-11-15T10:12:38;21.30;81.00
9006;DHT22;62284;50.702;7.140;2022-11-15T10:15:14;21.40;78.50
9006;DHT22;62284;50.702;7.140;2022-11-15T10:18:06;21.40;73.80
9006;DHT22;62284;50.702;7.140;2022-11-15T10:20:42;21.40;67.70
9006;DHT22;62284;50.702;7.140;2022-11-15T10:23:13;22.20;65.50
9006;DHT22;62284;50.702;7.140;2022-11-15T10:25:40;22.60;69.60
9006;DHT22;62284;50.702;7.140;2022-11-15T10:28:13;22.60;64.00
9006;DHT22;62284;50.702;7.140;2022-11-15T10:30:44;22.70;68.90
9006;DHT22;62284;50.702;7.140;2022-11-15T10:33:17;22.90;63.10
9006;DHT22;62284;50.702;7.140;2022-11-15T10:35:46;23.00;58.20
9006;DHT22;62284;50.702;7.140;2022-11-15T10:38:13;23.60;65.20
9006;DHT22;62284;50.702;7.140;2022-11-15T10:40:40;24.10;62.60
9006;DHT22;62284;50.702;7.140;2022-11-15T10:43:16;23.70;61.50
9006;DHT22;62284;50.702;7.140;2022-11-15T10:45:46;23.10;61.30
9006;DHT22;62284;50.702;7.140;2022-11-15T10:48:25;22.90;61.90
9006;DHT22;62284;50.702;7.140;2022-11-15T10:50:52;22.90;59.10
9006;DHT22;62284;50.702;7.140;2022-11-15T10:53:25;23.70;59.50
9006;DHT22;62284;50.702;7.140;2022-11-15T10:55:55;23.60;57.10
9006;DHT22;62284;50.702;7.140;2022-11-15T10:58:32;21.90;51.00
9006;DHT22;62284;50.702;7.140;2022-11-15T11:01:11;21.60;53.70
9006;DHT22;62284;50.702;7.140;2022-11-15T11:03:40;21.50;51.60
9006;DHT22;62284;50.702;7.140;2022-11-15T11:06:10;20.60;53.90
9006;DHT22;62284;50.702;7.140;2022-11-15T11:08:37;19.30;68.50
9006;DHT22;62284;50.702;7.140;2022-11-15T11:11:05;18.90;65.40
9006;DHT22;62284;50.702;7.140;2022-11-15T11:13:34;18.70;66.40
9006;DHT22;62284;50.702;7.140;2022-11-15T11:16:20;18.20;64.20
9006;DHT22;62284;50.702;7.140;2022-11-15T11:18:55;18.20;68.70
9006;DHT22;62284;50.702;7.140;2022-11-15T11:21:30;18.30;69.20
9006;DHT22;62284;50.702;7.140;2022-11-15T11:24:04;18.50;69.80
9006;DHT22;62284;50.702;7.140;2022-11-15T11:26:40;18.20;69.90
9006;DHT22;62284;50.702;7.140;2022-11-15T11:29:20;18.10;71.00
9006;DHT22;62284;50.702;7.140;2022-11-15T11:31:57;18.10;72.10
9006;DHT22;62284;50.702;7.140;2022-11-15T11:34:36;18.30;72.50
9006;DHT22;62284;50.702;7.140;2022-11-15T11:37:11;19.00;71.00
9006;DHT22;62284;50.702;7.140;2022-11-15T11:39:48;19.90;64.40
9006;DHT22;62284;50.702;7.140;2022-11-15T11:42:30;20.40;63.20
9006;DHT22;62284;50.702;7.140;2022-11-15T11:45:06;20.30;61.90
9006;DHT22;62284;50.702;7.140;2022-11-15T11:47:40;19.70;64.80
9006;DHT22;62284;50.702;7.140;2022-11-15T11:50:13;19.20;67.60
9006;DHT22;62284;50.702;7.140;2022-11-15T11:52:53;18.90;71.40
9006;DHT22;62284;50.702;7.140;2022-11-15T11:55:24;19.30;70.90
9006;DHT22;62284;50.702;7.140;2022-11-15T11:57:59;19.30;71.40
9006;DHT22;62284;50.702;7.140;2022-11-15T12:00:30;18.70;73.50
9006;DHT22;62284;50.702;7.140;2022-11-15T12:03:07;18.50;74.60
9006;DHT22;62284;50.702;7.140;2022-11-15T12:05:38;18.30;76.00
9006;DHT22;62284;50.702;7.140;2022-11-15T12:08:24;17.90;79.20
9006;DHT22;62284;50.702;7.140;2022-11-15T12:10:58;17.80;81.50
9006;DHT22;62284;50.702;7.140;2022-11-15T12:13:29;17.70;82.10
9006;DHT22;62284;50.702;7.140;2022-11-15T12:16:03;17.80;82.10
9006;DHT22;62284;50.702;7.140;2022-11-15T12:18:34;17.80;84.50
9006;DHT22;62284;50.702;7.140;2022-11-15T12:21:04;18.10;83.80
9006;DHT22;62284;50.702;7.140;2022-11-15T12:23:40;18.30;83.20
9006;DHT22;62284;50.702;7.140;2022-11-15T12:26:11;18.20;83.10
9006;DHT22;62284;50.702;7.140;2022-11-15T12:28:42;17.90;84.30
9006;DHT22;62284;50.702;7.140;2022-11-15T12:31:12;17.70;85.30
9006;DHT22;62284;50.702;7.140;2022-11-15T12:33:44;17.50;87.40
9006;DHT22;62284;50.702;7.140;2022-11-15T12:36:32;17.40;85.40
9006;DHT22;62284;50.702;7.140;2022-11-15T12:39:02;17.60;84.30
9006;DHT22;62284;50.702;7.140;2022-11-15T12:41:30;17.60;85.00
9006;DHT22;62284;50.702;7.140;2022-11-15T12:43:58;17.80;84.50
9006;DHT22;62284;50.702;7.140;2022-11-15T12:46:59;17.80;83.40
9006;DHT22;62284;50.702;7.140;2022-11-15T12:49:46;17.70;83.40
9006;DHT22;62284;50.702;7.140;2022-11-15T12:52:14;17.60;83.70
9006;DHT22;62284;50.702;7.140;2022-11-15T12:54:53;17.40;85.30
9006;DHT22;62284;50.702;7.140;2022-11-15T12:57:35;17.40;86.30
9006;DHT22;62284;50.702;7.140;2022-11-15T13:03:26;17.40;86.00
9006;DHT22;62284;50.702;7.140;2022-11-15T13:06:09;17.50;86.30
9006;DHT22;62284;50.702;7.140;2022-11-15T13:08:56;17.60;87.20
9006;DHT22;62284;50.702;7.140;2022-11-15T13:11:46;17.40;86.90
9006;DHT22;62284;50.702;7.140;2022-11-15T13:14:39;17.60;86.50
9006;DHT22;62284;50.702;7.140;2022-11-15T13:17:25;17.80;86.60
9006;DHT22;62284;50.702;7.140;2022-11-15T13:19:57;17.90;85.60
9006;DHT22;62284;50.702;7.140;2022-11-15T13:22:27;17.90;85.90
9006;DHT22;62284;50.702;7.140;2022-11-15T13:25:18;17.80;86.20
9006;DHT22;62284;50.702;7.140;2022-11-15T13:27:47;17.60;87.60
9006;DHT22;62284;50.702;7.140;2022-11-15T13:30:19;17.50;87.30
9006;DHT22;62284;50.702;7.140;2022-11-15T13:32:47;17.50;87.40
9006;DHT22;62284;50.702;7.140;2022-11-15T13:35:20;17.30;88.70
9006;DHT22;62284;50.702;7.140;2022-11-15T13:37:49;17.40;88.10
9006;DHT22;62284;50.702;7.140;2022-11-15T13:40:22;17.30;89.80
9006;DHT22;62284;50.702;7.140;2022-11-15T13:42:49;16.90;89.70
9006;DHT22;62284;50.702;7.140;2022-11-15T13:45:17;16.90;90.50
9006;DHT22;62284;50.702;7.140;2022-11-15T13:47:47;16.90;90.50
9006;DHT22;62284;50.702;7.140;2022-11-15T13:50:17;16.70;90.60
9006;DHT22;62284;50.702;7.140;2022-11-15T13:52:48;16.80;90.80
9006;DHT22;62284;50.702;7.140;2022-11-15T13:55:18;16.70;91.10
9006;DHT22;62284;50.702;7.140;2022-11-15T13:57:47;16.50;92.30
9006;DHT22;62284;50.702;7.140;2022-11-15T14:00:36;16.40;95.00
9006;DHT22;62284;50.702;7.140;2022-11-15T14:03:12;16.40;95.00
9006;DHT22;62284;50.702;7.140;2022-11-15T14:05:41;16.40;95.20
9006;DHT22;62284;50.702;7.140;2022-11-15T14:08:23;16.40;95.70
9006;DHT22;62284;50.702;7.140;2022-11-15T14:11:05;16.50;94.60
9006;DHT22;62284;50.702;7.140;2022-11-15T14:13:32;16.60;94.40
9006;DHT22;62284;50.702;7.140;2022-11-15T14:16:13;16.60;94.50
9006;DHT22;62284;50.702;7.140;2022-11-15T14:18:43;16.80;94.90
9006;DHT22;62284;50.702;7.140;2022-11-15T14:21:10;16.90;94.40
9006;DHT22;62284;50.702;7.140;2022-11-15T14:23:39;16.80;94.10
9006;DHT22;62284;50.702;7.140;2022-11-15T14:26:10;16.80;94.50
9006;DHT22;62284;50.702;7.140;2022-11-15T14:28:38;16.80;94.00
9006;DHT22;62284;50.702;7.140;2022-11-15T14:31:11;16.60;94.30
9006;DHT22;62284;50.702;7.140;2022-11-15T14:33:39;16.60;94.50
9006;DHT22;62284;50.702;7.140;2022-11-15T14:36:11;16.40;95.00
9006;DHT22;62284;50.702;7.140;2022-11-15T14:38:40;16.30;95.20
9006;DHT22;62284;50.702;7.140;2022-11-15T14:41:17;16.20;95.80
9006;DHT22;62284;50.702;7.140;2022-11-15T14:43:44;16.10;97.60
9006;DHT22;62284;50.702;7.140;2022-11-15T14:46:11;16.10;97.60
9006;DHT22;62284;50.702;7.140;2022-11-15T14:48:38;16.10;97.70
9006;DHT22;62284;50.702;7.140;2022-11-15T14:51:11;16.10;97.60
9006;DHT22;62284;50.702;7.140;2022-11-15T14:53:40;16.30;97.60
9006;DHT22;62284;50.702;7.140;2022-11-15T14:56:07;16.20;97.80
9006;DHT22;62284;50.702;7.140;2022-11-15T14:58:34;16.20;97.70
9006;DHT22;62284;50.702;7.140;2022-11-15T15:01:02;16.10;98.00
9006;DHT22;62284;50.702;7.140;2022-11-15T15:03:29;16.00;98.10
9006;DHT22;62284;50.702;7.140;2022-11-15T15:05:56;16.00;98.40
9006;DHT22;62284;50.702;7.140;2022-11-15T15:08:23;15.80;98.60
9006;DHT22;62284;50.702;7.140;2022-11-15T15:10:51;15.80;99.70
9006;DHT22;62284;50.702;7.140;2022-11-15T15:13:20;15.80;99.90
9006;DHT22;62284;50.702;7.140;2022-11-15T15:15:47;15.80;99.90
9006;DHT22;62284;50.702;7.140;2022-11-15T15:18:15;15.70;99.90
9006;DHT22;62284;50.702;7.140;2022-11-15T15:20:43;15.70;99.90
9006;DHT22;62284;50.702;7.140;2022-11-15T15:23:15;15.60;99.90
9006;DHT22;62284;50.702;7.140;2022-11-15T15:25:42;15.50;99.90
9006;DHT22;62284;50.702;7.140;2022-11-15T15:28:12;15.60;99.90
9006;DHT22;62284;50.702;7.140;2022-11-15T15:30:39;15.50;99.90
9006;DHT22;62284;50.702;7.140;2022-11-15T15:33:06;15.30;99.90
9006;DHT22;62284;50.702;7.140;2022-11-15T15:35:34;15.30;99.90
9006;DHT22;62284;50.702;7.140;2022-11-15T15:38:02;15.20;99.90
9006;DHT22;62284;50.702;7.140;2022-11-15T15:40:31;15.10;99.90
9006;DHT22;62284;50.702;7.140;2022-11-15T15:42:58;15.10;99.90
9006;DHT22;62284;50.702;7.140;2022-11-15T15:45:27;15.00;99.90
9006;DHT22;62284;50.702;7.140;2022-11-15T15:47:55;15.10;99.90
9006;DHT22;62284;50.702;7.140;2022-11-15T15:50:23;15.00;99.90
9006;DHT22;62284;50.702;7.140;2022-11-15T15:52:52;15.00;99.90
9006;DHT22;62284;50.702;7.140;2022-11-15T15:55:19;15.00;99.90
9006;DHT22;62284;50.702;7.140;2022-11-15T15:57:47;14.90;99.90
9006;DHT22;62284;50.702;7.140;2022-11-15T16:00:15;14.90;99.90
9006;DHT22;62284;50.702;7.140;2022-11-15T16:02:43;14.90;99.90
9006;DHT22;62284;50.702;7.140;2022-11-15T16:05:11;14.90;99.90
9006;DHT22;62284;50.702;7.140;2022-11-15T16:07:38;14.90;99.90
9006;DHT22;62284;50.702;7.140;2022-11-15T16:10:17;14.90;99.90
9006;DHT22;62284;50.702;7.140;2022-11-15T16:12:44;14.90;99.90
9006;DHT22;62284;50.702;7.140;2022-11-15T16:15:11;14.90;99.90
9006;DHT22;62284;50.702;7.140;2022-11-15T16:17:40;14.80;99.90